sensor_id;sensor_type;location;lat;lon;timestamp;temperature;humidity
5960;DHT22;3006;50.956;7.002;2023-11-21T00:00:48;9.00;98.20
5960;DHT22;3006;50.956;7.002;2023-11-21T00:03:18;9.00;98.40
5960;DHT22;3006;50.956;7.002;2023-11-21T00:05:47;9.00;98.30
5960;DHT22;3006;50.956;7.002;2023-11-21T00:08:15;9.00;98.20
5960;DHT22;3006;50.956;7.002;2023-11-21T00:10:43;9.00;98.10
5960;DHT22;3006;50.956;7.002;2023-11-21T00:13:11;9.00;97.80
5960;DHT22;3006;50.956;7.002;2023-11-21T00:15:40;9.00;97.60
5960;DHT22;3006;50.956;7.002;2023-11-21T00:18:09;9.00;97.60
5960;DHT22;3006;50.956;7.002;2023-11-21T00:20:38;9.00;97.50
5960;DHT22;3006;50.956;7.002;2023-11-21T00:23:06;9.00;97.60
5960;DHT22;3006;50.956;7.002;2023-11-21T00:25:36;9.00;97.60
5960;DHT22;3006;50.956;7.002;2023-11-21T00:28:05;9.00;97.50
5960;DHT22;3006;50.956;7.002;2023-11-21T00:30:33;9.10;97.40
5960;DHT22;3006;50.956;7.002;2023-11-21T00:33:01;9.00;97.20
5960;DHT22;3006;50.956;7.002;2023-11-21T00:35:31;9.10;97.30
5960;DHT22;3006;50.956;7.002;2023-11-21T00:37:59;9.10;97.30
5960;DHT22;3006;50.956;7.002;2023-11-21T00:40:27;9.00;97.90
5960;DHT22;3006;50.956;7.002;2023-11-21T00:42:56;9.00;98.20
5960;DHT22;3006;50.956;7.002;2023-11-21T00:45:24;9.00;98.20
5960;DHT22;3006;50.956;7.002;2023-11-21T00:47:52;9.00;98.50
5960;DHT22;3006;50.956;7.002;2023-11-21T00:50:21;9.00;98.80
5960;DHT22;3006;50.956;7.002;2023-11-21T00:52:51;9.00;98.60
5960;DHT22;3006;50.956;7.002;2023-11-21T00:55:20;9.00;98.70
5960;DHT22;3006;50.956;7.002;2023-11-21T00:57:48;9.00;98.60
5960;DHT22;3006;50.956;7.002;2023-11-21T01:00:17;9.00;98.90
5960;DHT22;3006;50.956;7.002;2023-11-21T01:02:45;9.00;99.10
5960;DHT22;3006;50.956;7.002;2023-11-21T01:05:14;8.90;99.60
5960;DHT22;3006;50.956;7.002;2023-11-21T01:07:42;8.90;99.70
5960;DHT22;3006;50.956;7.002;2023-11-21T01:10:12;8.90;99.60
5960;DHT22;3006;50.956;7.002;2023-11-21T01:12:41;8.90;99.70
5960;DHT22;3006;50.956;7.002;2023-11-21T01:15:09;8.80;99.60
5960;DHT22;3006;50.956;7.002;2023-11-21T01:17:39;8.80;99.60
5960;DHT22;3006;50.956;7.002;2023-11-21T01:20:08;8.90;99.50
5960;DHT22;3006;50.956;7.002;2023-11-21T01:22:40;8.80;99.50
5960;DHT22;3006;50.956;7.002;2023-11-21T01:25:08;8.80;99.60
5960;DHT22;3006;50.956;7.002;2023-11-21T01:27:40;8.80;99.10
5960;DHT22;3006;50.956;7.002;2023-11-21T01:30:09;8.90;98.70
5960;DHT22;3006;50.956;7.002;2023-11-21T01:32:37;8.90;98.00
5960;DHT22;3006;50.956;7.002;2023-11-21T01:35:07;8.90;97.80
5960;DHT22;3006;50.956;7.002;2023-11-21T01:37:36;8.90;97.50
5960;DHT22;3006;50.956;7.002;2023-11-21T01:40:06;8.90;97.60
5960;DHT22;3006;50.956;7.002;2023-11-21T01:42:39;8.80;97.90
5960;DHT22;3006;50.956;7.002;2023-11-21T01:45:08;8.80;98.50
5960;DHT22;3006;50.956;7.002;2023-11-21T01:47:36;8.70;98.80
5960;DHT22;3006;50.956;7.002;2023-11-21T01:50:07;8.70;99.00
5960;DHT22;3006;50.956;7.002;2023-11-21T01:52:39;8.70;98.80
5960;DHT22;3006;50.956;7.002;2023-11-21T01:55:08;8.60;99.00
5960;DHT22;3006;50.956;7.002;2023-11-21T01:57:37;8.60;99.10
5960;DHT22;3006;50.956;7.002;2023-11-21T02:00:08;8.60;99.20
5960;DHT22;3006;50.956;7.002;2023-11-21T02:02:43;8.50;99.60
5960;DHT22;3006;50.956;7.002;2023-11-21T02:05:12;8.40;99.80
5960;DHT22;3006;50.956;7.002;2023-11-21T02:07:41;8.40;99.90
5960;DHT22;3006;50.956;7.002;2023-11-21T02:10:10;8.50;99.90
5960;DHT22;3006;50.956;7.002;2023-11-21T02:12:41;8.60;99.90
5960;DHT22;3006;50.956;7.002;2023-11-21T02:15:12;8.60;99.90
5960;DHT22;3006;50.956;7.002;2023-11-21T02:17:47;8.50;99.30
5960;DHT22;3006;50.956;7.002;2023-11-21T02:20:19;8.40;99.90
5960;DHT22;3006;50.956;7.002;2023-11-21T02:22:52;8.40;99.90
5960;DHT22;3006;50.956;7.002;2023-11-21T02:25:25;8.30;99.90
5960;DHT22;3006;50.956;7.002;2023-11-21T02:27:55;8.30;99.90
5960;DHT22;3006;50.956;7.002;2023-11-21T02:30:23;8.30;99.90
5960;DHT22;3006;50.956;7.002;2023-11-21T02:32:52;8.40;99.90
5960;DHT22;3006;50.956;7.002;2023-11-21T02:35:21;8.40;99.90
5960;DHT22;3006;50.956;7.002;2023-11-21T02:37:49;8.50;99.90
5960;DHT22;3006;50.956;7.002;2023-11-21T02:40:19;8.60;99.70
5960;DHT22;3006;50.956;7.002;2023-11-21T02:42:48;8.60;99.70
5960;DHT22;3006;50.956;7.002;2023-11-21T02:45:20;8.50;99.90
5960;DHT22;3006;50.956;7.002;2023-11-21T02:47:50;8.60;99.90
5960;DHT22;3006;50.956;7.002;2023-11-21T02:50:20;8.60;99.90
5960;DHT22;3006;50.956;7.002;2023-11-21T02:52:50;8.70;99.70
5960;DHT22;3006;50.956;7.002;2023-11-21T02:55:21;8.80;99.30
5960;DHT22;3006;50.956;7.002;2023-11-21T02:57:53;8.70;99.40
5960;DHT22;3006;50.956;7.002;2023-11-21T03:00:23;8.80;99.20
5960;DHT22;3006;50.956;7.002;2023-11-21T03:02:54;8.80;99.00
5960;DHT22;3006;50.956;7.002;2023-11-21T03:05:23;8.90;99.00
5960;DHT22;3006;50.956;7.002;2023-11-21T03:07:51;8.90;98.90
5960;DHT22;3006;50.956;7.002;2023-11-21T03:10:20;8.90;99.00
5960;DHT22;3006;50.956;7.002;2023-11-21T03:12:49;8.90;99.00
5960;DHT22;3006;50.956;7.002;2023-11-21T03:15:17;8.90;99.00
5960;DHT22;3006;50.956;7.002;2023-11-21T03:17:45;8.90;98.90
5960;DHT22;3006;50.956;7.002;2023-11-21T03:20:16;8.90;99.10
5960;DHT22;3006;50.956;7.002;2023-11-21T03:22:44;8.90;99.40
5960;DHT22;3006;50.956;7.002;2023-11-21T03:25:13;8.90;99.20
5960;DHT22;3006;50.956;7.002;2023-11-21T03:27:43;8.80;99.60
5960;DHT22;3006;50.956;7.002;2023-11-21T03:30:11;8.60;99.90
5960;DHT22;3006;50.956;7.002;2023-11-21T03:32:41;8.80;99.90
5960;DHT22;3006;50.956;7.002;2023-11-21T03:35:09;8.80;99.90
5960;DHT22;3006;50.956;7.002;2023-11-21T03:37:38;8.70;99.90
5960;DHT22;3006;50.956;7.002;2023-11-21T03:40:09;8.70;99.90
5960;DHT22;3006;50.956;7.002;2023-11-21T03:42:39;8.80;99.90
5960;DHT22;3006;50.956;7.002;2023-11-21T03:45:09;8.80;99.90
5960;DHT22;3006;50.956;7.002;2023-11-21T03:47:40;8.80;99.90
5960;DHT22;3006;50.956;7.002;2023-11-21T03:50:09;8.80;99.80
5960;DHT22;3006;50.956;7.002;2023-11-21T03:52:37;8.80;99.90
5960;DHT22;3006;50.956;7.002;2023-11-21T03:55:06;8.70;99.90
5960;DHT22;3006;50.956;7.002;2023-11-21T03:57:34;8.60;99.90
5960;DHT22;3006;50.956;7.002;2023-11-21T04:00:04;8.60;99.90
5960;DHT22;3006;50.956;7.002;2023-11-21T04:02:39;8.70;99.90
5960;DHT22;3006;50.956;7.002;2023-11-21T04:05:07;8.60;99.90
5960;DHT22;3006;50.956;7.002;2023-11-21T04:07:36;8.60;99.90
5960;DHT22;3006;50.956;7.002;2023-11-21T04:10:06;8.60;99.90
5960;DHT22;3006;50.956;7.002;2023-11-21T04:12:35;8.70;99.90
5960;DHT22;3006;50.956;7.002;2023-11-21T04:15:04;8.60;99.90
5960;DHT22;3006;50.956;7.002;2023-11-21T04:17:35;8.60;99.90
5960;DHT22;3006;50.956;7.002;2023-11-21T04:20:07;8.60;99.90
5960;DHT22;3006;50.956;7.002;2023-11-21T04:22:37;8.50;99.90
5960;DHT22;3006;50.956;7.002;2023-11-21T04:25:08;8.60;99.90
5960;DHT22;3006;50.956;7.002;2023-11-21T04:27:39;8.60;99.90
5960;DHT22;3006;50.956;7.002;2023-11-21T04:30:07;8.70;99.90
5960;DHT22;3006;50.956;7.002;2023-11-21T04:32:37;8.70;99.90
5960;DHT22;3006;50.956;7.002;2023-11-21T04:35:08;8.70;99.90
5960;DHT22;3006;50.956;7.002;2023-11-21T04:37:36;8.60;99.90
5960;DHT22;3006;50.956;7.002;2023-11-21T04:40:06;8.50;99.90
5960;DHT22;3006;50.956;7.002;2023-11-21T04:42:35;8.50;99.90
5960;DHT22;3006;50.956;7.002;2023-11-21T04:45:04;8.50;99.90
5960;DHT22;3006;50.956;7.002;2023-11-21T04:47:35;8.50;99.90
5960;DHT22;3006;50.956;7.002;2023-11-21T04:50:04;8.50;99.90
5960;DHT22;3006;50.956;7.002;2023-11-21T04:52:35;8.50;99.90
5960;DHT22;3006;50.956;7.002;2023-11-21T04:55:04;8.50;99.90
5960;DHT22;3006;50.956;7.002;2023-11-21T04:57:33;8.50;99.90
5960;DHT22;3006;50.956;7.002;2023-11-21T05:00:00;8.50;99.90
5960;DHT22;3006;50.956;7.002;2023-11-21T05:02:32;8.50;99.90
5960;DHT22;3006;50.956;7.002;2023-11-21T05:05:02;8.50;99.90
5960;DHT22;3006;50.956;7.002;2023-11-21T05:07:32;8.50;99.90
5960;DHT22;3006;50.956;7.002;2023-11-21T05:10:05;8.50;99.90
5960;DHT22;3006;50.956;7.002;2023-11-21T05:12:35;8.40;99.90
5960;DHT22;3006;50.956;7.002;2023-11-21T05:15:05;8.40;99.90
5960;DHT22;3006;50.956;7.002;2023-11-21T05:17:35;8.50;99.90
5960;DHT22;3006;50.956;7.002;2023-11-21T05:20:04;8.40;99.90
5960;DHT22;3006;50.956;7.002;2023-11-21T05:22:35;8.40;99.90
5960;DHT22;3006;50.956;7.002;2023-11-21T05:25:06;8.40;99.90
5960;DHT22;3006;50.956;7.002;2023-11-21T05:27:35;8.50;99.70
5960;DHT22;3006;50.956;7.002;2023-11-21T05:30:05;8.50;99.90
5960;DHT22;3006;50.956;7.002;2023-11-21T05:32:34;8.60;99.70
5960;DHT22;3006;50.956;7.002;2023-11-21T05:35:02;8.60;99.60
5960;DHT22;3006;50.956;7.002;2023-11-21T05:37:30;8.60;99.30
5960;DHT22;3006;50.956;7.002;2023-11-21T05:39:59;8.50;99.70
5960;DHT22;3006;50.956;7.002;2023-11-21T05:42:34;8.40;99.90
5960;DHT22;3006;50.956;7.002;2023-11-21T05:45:02;8.50;99.90
5960;DHT22;3006;50.956;7.002;2023-11-21T05:47:37;8.40;99.90
5960;DHT22;3006;50.956;7.002;2023-11-21T05:50:07;8.40;99.90
5960;DHT22;3006;50.956;7.002;2023-11-21T05:52:39;8.50;99.90
5960;DHT22;3006;50.956;7.002;2023-11-21T05:55:08;8.40;99.90
5960;DHT22;3006;50.956;7.002;2023-11-21T05:57:39;8.40;99.90
5960;DHT22;3006;50.956;7.002;2023-11-21T06:00:09;8.50;99.90
5960;DHT22;3006;50.956;7.002;2023-11-21T06:02:45;8.60;99.90
5960;DHT22;3006;50.956;7.002;2023-11-21T06:05:13;8.60;99.60
5960;DHT22;3006;50.956;7.002;2023-11-21T06:07:42;8.60;99.60
5960;DHT22;3006;50.956;7.002;2023-11-21T06:10:11;8.60;99.70
5960;DHT22;3006;50.956;7.002;2023-11-21T06:12:43;8.60;99.50
5960;DHT22;3006;50.956;7.002;2023-11-21T06:15:12;8.60;99.50
5960;DHT22;3006;50.956;7.002;2023-11-21T06:17:41;8.60;99.70
5960;DHT22;3006;50.956;7.002;2023-11-21T06:20:12;8.50;99.50
5960;DHT22;3006;50.956;7.002;2023-11-21T06:22:44;8.50;99.60
5960;DHT22;3006;50.956;7.002;2023-11-21T06:25:12;8.60;99.40
5960;DHT22;3006;50.956;7.002;2023-11-21T06:27:44;8.60;99.20
5960;DHT22;3006;50.956;7.002;2023-11-21T06:30:13;8.60;99.00
5960;DHT22;3006;50.956;7.002;2023-11-21T06:32:43;8.60;99.10
5960;DHT22;3006;50.956;7.002;2023-11-21T06:35:13;8.80;99.10
5960;DHT22;3006;50.956;7.002;2023-11-21T06:37:43;8.70;99.20
5960;DHT22;3006;50.956;7.002;2023-11-21T06:40:15;8.70;99.30
5960;DHT22;3006;50.956;7.002;2023-11-21T06:42:47;8.70;99.20
5960;DHT22;3006;50.956;7.002;2023-11-21T06:45:15;8.70;98.90
5960;DHT22;3006;50.956;7.002;2023-11-21T06:47:44;8.70;98.80
5960;DHT22;3006;50.956;7.002;2023-11-21T06:50:13;8.70;98.70
5960;DHT22;3006;50.956;7.002;2023-11-21T06:52:41;8.70;98.70
5960;DHT22;3006;50.956;7.002;2023-11-21T06:55:10;8.70;98.50
5960;DHT22;3006;50.956;7.002;2023-11-21T06:57:38;8.70;98.60
5960;DHT22;3006;50.956;7.002;2023-11-21T07:00:09;8.70;98.70
5960;DHT22;3006;50.956;7.002;2023-11-21T07:02:38;8.60;99.20
5960;DHT22;3006;50.956;7.002;2023-11-21T07:05:07;8.60;99.40
5960;DHT22;3006;50.956;7.002;2023-11-21T07:07:35;8.80;99.30
5960;DHT22;3006;50.956;7.002;2023-11-21T07:10:05;8.80;99.30
5960;DHT22;3006;50.956;7.002;2023-11-21T07:12:33;8.70;99.50
5960;DHT22;3006;50.956;7.002;2023-11-21T07:15:02;8.70;99.30
5960;DHT22;3006;50.956;7.002;2023-11-21T07:17:33;8.60;99.50
5960;DHT22;3006;50.956;7.002;2023-11-21T07:20:06;8.60;99.90
5960;DHT22;3006;50.956;7.002;2023-11-21T07:22:35;8.70;99.90
5960;DHT22;3006;50.956;7.002;2023-11-21T07:25:04;8.70;99.80
5960;DHT22;3006;50.956;7.002;2023-11-21T07:27:32;8.60;99.70
5960;DHT22;3006;50.956;7.002;2023-11-21T07:30:03;8.60;99.90
5960;DHT22;3006;50.956;7.002;2023-11-21T07:32:34;9.00;99.90
5960;DHT22;3006;50.956;7.002;2023-11-21T07:35:02;9.00;99.90
5960;DHT22;3006;50.956;7.002;2023-11-21T07:37:30;9.10;99.10
5960;DHT22;3006;50.956;7.002;2023-11-21T07:39:59;9.00;98.50
5960;DHT22;3006;50.956;7.002;2023-11-21T07:42:27;9.30;98.50
5960;DHT22;3006;50.956;7.002;2023-11-21T07:44:55;9.50;96.50
5960;DHT22;3006;50.956;7.002;2023-11-21T07:47:24;9.20;97.30
5960;DHT22;3006;50.956;7.002;2023-11-21T07:49:55;9.20;97.60
5960;DHT22;3006;50.956;7.002;2023-11-21T07:52:24;9.20;97.60
5960;DHT22;3006;50.956;7.002;2023-11-21T07:54:52;9.20;97.60
5960;DHT22;3006;50.956;7.002;2023-11-21T07:57:20;9.20;97.80
5960;DHT22;3006;50.956;7.002;2023-11-21T07:59:48;9.00;98.50
5960;DHT22;3006;50.956;7.002;2023-11-21T08:02:16;9.00;98.70
5960;DHT22;3006;50.956;7.002;2023-11-21T08:04:44;8.80;99.30
5960;DHT22;3006;50.956;7.002;2023-11-21T08:07:17;8.90;99.90
5960;DHT22;3006;50.956;7.002;2023-11-21T08:09:46;9.00;99.90
5960;DHT22;3006;50.956;7.002;2023-11-21T08:12:16;9.00;99.80
5960;DHT22;3006;50.956;7.002;2023-11-21T08:14:45;9.00;99.70
5960;DHT22;3006;50.956;7.002;2023-11-21T08:17:13;9.00;99.70
5960;DHT22;3006;50.956;7.002;2023-11-21T08:19:44;9.10;99.60
5960;DHT22;3006;50.956;7.002;2023-11-21T08:22:18;9.00;99.90
5960;DHT22;3006;50.956;7.002;2023-11-21T08:24:46;9.00;99.90
5960;DHT22;3006;50.956;7.002;2023-11-21T08:27:14;9.00;99.80
5960;DHT22;3006;50.956;7.002;2023-11-21T08:29:43;9.00;99.40
5960;DHT22;3006;50.956;7.002;2023-11-21T08:32:11;9.00;99.50
5960;DHT22;3006;50.956;7.002;2023-11-21T08:34:39;9.00;99.80
5960;DHT22;3006;50.956;7.002;2023-11-21T08:37:10;9.00;99.60
5960;DHT22;3006;50.956;7.002;2023-11-21T08:39:40;8.90;99.50
5960;DHT22;3006;50.956;7.002;2023-11-21T08:42:09;8.80;99.90
5960;DHT22;3006;50.956;7.002;2023-11-21T08:44:37;8.90;99.90
5960;DHT22;3006;50.956;7.002;2023-11-21T08:47:06;9.00;99.50
5960;DHT22;3006;50.956;7.002;2023-11-21T08:49:35;9.00;99.90
5960;DHT22;3006;50.956;7.002;2023-11-21T08:52:03;9.00;99.60
5960;DHT22;3006;50.956;7.002;2023-11-21T08:54:32;9.00;99.40
5960;DHT22;3006;50.956;7.002;2023-11-21T08:57:03;9.00;99.60
5960;DHT22;3006;50.956;7.002;2023-11-21T08:59:32;9.10;99.90
5960;DHT22;3006;50.956;7.002;2023-11-21T09:02:00;9.00;99.70
5960;DHT22;3006;50.956;7.002;2023-11-21T09:04:28;9.10;99.10
5960;DHT22;3006;50.956;7.002;2023-11-21T09:06:56;9.00;99.70
5960;DHT22;3006;50.956;7.002;2023-11-21T09:09:26;9.00;99.90
5960;DHT22;3006;50.956;7.002;2023-11-21T09:11:55;9.00;99.90
5960;DHT22;3006;50.956;7.002;2023-11-21T09:14:25;9.00;99.90
5960;DHT22;3006;50.956;7.002;2023-11-21T09:16:53;9.00;99.90
5960;DHT22;3006;50.956;7.002;2023-11-21T09:19:23;9.00;99.90
5960;DHT22;3006;50.956;7.002;2023-11-21T09:21:51;9.20;99.60
5960;DHT22;3006;50.956;7.002;2023-11-21T09:24:20;9.20;99.50
5960;DHT22;3006;50.956;7.002;2023-11-21T09:26:48;9.10;99.90
5960;DHT22;3006;50.956;7.002;2023-11-21T09:29:17;9.00;99.90
5960;DHT22;3006;50.956;7.002;2023-11-21T09:31:46;9.00;99.90
5960;DHT22;3006;50.956;7.002;2023-11-21T09:34:15;9.10;99.70
5960;DHT22;3006;50.956;7.002;2023-11-21T09:36:45;9.20;99.50
5960;DHT22;3006;50.956;7.002;2023-11-21T09:39:13;9.10;99.60
5960;DHT22;3006;50.956;7.002;2023-11-21T09:41:44;9.20;99.60
5960;DHT22;3006;50.956;7.002;2023-11-21T09:44:32;9.20;99.70
5960;DHT22;3006;50.956;7.002;2023-11-21T09:47:04;9.20;99.50
5960;DHT22;3006;50.956;7.002;2023-11-21T09:49:38;9.20;99.30
5960;DHT22;3006;50.956;7.002;2023-11-21T09:52:09;9.30;98.90
5960;DHT22;3006;50.956;7.002;2023-11-21T09:54:42;9.10;99.50
5960;DHT22;3006;50.956;7.002;2023-11-21T09:57:11;9.20;99.90
5960;DHT22;3006;50.956;7.002;2023-11-21T09:59:40;9.20;99.80
5960;DHT22;3006;50.956;7.002;2023-11-21T10:02:10;9.00;99.90
5960;DHT22;3006;50.956;7.002;2023-11-21T10:04:40;9.20;99.90
5960;DHT22;3006;50.956;7.002;2023-11-21T10:07:09;9.10;99.90
5960;DHT22;3006;50.956;7.002;2023-11-21T10:09:38;9.20;99.90
5960;DHT22;3006;50.956;7.002;2023-11-21T10:12:07;9.20;99.80
5960;DHT22;3006;50.956;7.002;2023-11-21T10:14:37;9.20;99.90
5960;DHT22;3006;50.956;7.002;2023-11-21T10:17:09;9.30;99.90
5960;DHT22;3006;50.956;7.002;2023-11-21T10:19:39;9.20;99.70
5960;DHT22;3006;50.956;7.002;2023-11-21T10:22:08;9.30;99.90
5960;DHT22;3006;50.956;7.002;2023-11-21T10:24:36;9.30;99.90
5960;DHT22;3006;50.956;7.002;2023-11-21T10:27:18;9.20;99.90
5960;DHT22;3006;50.956;7.002;2023-11-21T10:29:46;9.20;99.90
5960;DHT22;3006;50.956;7.002;2023-11-21T10:32:15;9.20;99.90
5960;DHT22;3006;50.956;7.002;2023-11-21T10:34:55;9.20;99.90
5960;DHT22;3006;50.956;7.002;2023-11-21T10:37:24;9.40;99.30
5960;DHT22;3006;50.956;7.002;2023-11-21T10:39:57;9.40;98.60
5960;DHT22;3006;50.956;7.002;2023-11-21T10:42:25;9.20;99.20
5960;DHT22;3006;50.956;7.002;2023-11-21T10:44:55;9.20;99.30
5960;DHT22;3006;50.956;7.002;2023-11-21T10:47:25;9.40;99.40
5960;DHT22;3006;50.956;7.002;2023-11-21T10:49:53;9.40;99.10
5960;DHT22;3006;50.956;7.002;2023-11-21T10:52:21;9.40;98.80
5960;DHT22;3006;50.956;7.002;2023-11-21T10:54:54;9.50;99.00
5960;DHT22;3006;50.956;7.002;2023-11-21T10:57:26;9.50;98.30
5960;DHT22;3006;50.956;7.002;2023-11-21T10:59:54;9.50;98.50
5960;DHT22;3006;50.956;7.002;2023-11-21T11:02:25;9.60;98.50
5960;DHT22;3006;50.956;7.002;2023-11-21T11:04:56;9.40;98.40
5960;DHT22;3006;50.956;7.002;2023-11-21T11:07:26;9.50;98.80
5960;DHT22;3006;50.956;7.002;2023-11-21T11:09:55;9.50;99.10
5960;DHT22;3006;50.956;7.002;2023-11-21T11:12:23;9.50;98.90
5960;DHT22;3006;50.956;7.002;2023-11-21T11:14:55;9.50;98.70
5960;DHT22;3006;50.956;7.002;2023-11-21T11:17:26;9.50;99.00
5960;DHT22;3006;50.956;7.002;2023-11-21T11:19:54;9.50;98.70
5960;DHT22;3006;50.956;7.002;2023-11-21T11:22:32;9.50;99.00
5960;DHT22;3006;50.956;7.002;2023-11-21T11:25:19;9.50;99.10
5960;DHT22;3006;50.956;7.002;2023-11-21T11:27:54;9.30;99.90
5960;DHT22;3006;50.956;7.002;2023-11-21T11:30:41;9.40;99.90
5960;DHT22;3006;50.956;7.002;2023-11-21T11:33:24;9.50;99.70
5960;DHT22;3006;50.956;7.002;2023-11-21T11:35:57;9.50;99.70
5960;DHT22;3006;50.956;7.002;2023-11-21T11:38:31;9.50;99.90
5960;DHT22;3006;50.956;7.002;2023-11-21T11:41:01;9.50;99.60
5960;DHT22;3006;50.956;7.002;2023-11-21T11:43:31;9.60;99.40
5960;DHT22;3006;50.956;7.002;2023-11-21T11:46:06;9.50;99.60
5960;DHT22;3006;50.956;7.002;2023-11-21T11:48:37;9.50;99.30
5960;DHT22;3006;50.956;7.002;2023-11-21T11:51:10;9.40;99.90
5960;DHT22;3006;50.956;7.002;2023-11-21T11:53:41;9.50;99.90
5960;DHT22;3006;50.956;7.002;2023-11-21T11:56:27;9.70;99.80
5960;DHT22;3006;50.956;7.002;2023-11-21T11:58:58;9.70;99.60
5960;DHT22;3006;50.956;7.002;2023-11-21T12:01:31;9.80;98.90
5960;DHT22;3006;50.956;7.002;2023-11-21T12:04:26;9.80;98.40
5960;DHT22;3006;50.956;7.002;2023-11-21T12:07:02;9.70;98.30
5960;DHT22;3006;50.956;7.002;2023-11-21T12:09:31;9.80;98.00
5960;DHT22;3006;50.956;7.002;2023-11-21T12:12:00;9.70;98.60
5960;DHT22;3006;50.956;7.002;2023-11-21T12:14:28;9.80;98.40
5960;DHT22;3006;50.956;7.002;2023-11-21T12:16:57;9.80;97.70
5960;DHT22;3006;50.956;7.002;2023-11-21T12:19:27;9.80;97.80
5960;DHT22;3006;50.956;7.002;2023-11-21T12:21:56;9.80;98.20
5960;DHT22;3006;50.956;7.002;2023-11-21T12:24:24;9.80;97.80
5960;DHT22;3006;50.956;7.002;2023-11-21T12:26:52;9.80;97.80
5960;DHT22;3006;50.956;7.002;2023-11-21T12:29:21;9.80;97.80
5960;DHT22;3006;50.956;7.002;2023-11-21T12:31:49;9.80;98.20
5960;DHT22;3006;50.956;7.002;2023-11-21T12:34:18;9.90;98.20
5960;DHT22;3006;50.956;7.002;2023-11-21T12:36:47;10.00;97.30
5960;DHT22;3006;50.956;7.002;2023-11-21T12:39:19;9.80;97.40
5960;DHT22;3006;50.956;7.002;2023-11-21T12:41:49;9.80;97.60
5960;DHT22;3006;50.956;7.002;2023-11-21T12:44:18;9.80;97.10
5960;DHT22;3006;50.956;7.002;2023-11-21T12:46:46;9.80;96.90
5960;DHT22;3006;50.956;7.002;2023-11-21T12:49:14;9.80;96.60
5960;DHT22;3006;50.956;7.002;2023-11-21T12:51:48;9.80;97.10
5960;DHT22;3006;50.956;7.002;2023-11-21T12:54:16;9.70;97.50
5960;DHT22;3006;50.956;7.002;2023-11-21T12:56:45;9.60;97.90
5960;DHT22;3006;50.956;7.002;2023-11-21T12:59:16;9.50;98.50
5960;DHT22;3006;50.956;7.002;2023-11-21T13:01:45;9.70;98.30
5960;DHT22;3006;50.956;7.002;2023-11-21T13:04:16;9.80;97.60
5960;DHT22;3006;50.956;7.002;2023-11-21T13:06:45;9.70;97.80
5960;DHT22;3006;50.956;7.002;2023-11-21T13:09:15;9.70;97.80
5960;DHT22;3006;50.956;7.002;2023-11-21T13:11:48;9.80;98.00
5960;DHT22;3006;50.956;7.002;2023-11-21T13:14:17;9.90;98.00
5960;DHT22;3006;50.956;7.002;2023-11-21T13:16:45;10.00;97.90
5960;DHT22;3006;50.956;7.002;2023-11-21T13:19:13;10.00;97.80
5960;DHT22;3006;50.956;7.002;2023-11-21T13:21:42;10.00;97.30
5960;DHT22;3006;50.956;7.002;2023-11-21T13:24:10;10.00;97.00
5960;DHT22;3006;50.956;7.002;2023-11-21T13:26:40;10.00;97.10
5960;DHT22;3006;50.956;7.002;2023-11-21T13:29:09;10.10;96.90
5960;DHT22;3006;50.956;7.002;2023-11-21T13:31:39;10.10;96.20
5960;DHT22;3006;50.956;7.002;2023-11-21T13:34:08;10.10;96.10
5960;DHT22;3006;50.956;7.002;2023-11-21T13:36:47;10.10;96.00
5960;DHT22;3006;50.956;7.002;2023-11-21T13:39:15;10.10;95.50
5960;DHT22;3006;50.956;7.002;2023-11-21T13:41:45;10.10;95.40
5960;DHT22;3006;50.956;7.002;2023-11-21T13:44:17;10.10;94.50
5960;DHT22;3006;50.956;7.002;2023-11-21T13:46:54;10.10;94.20
5960;DHT22;3006;50.956;7.002;2023-11-21T13:49:24;10.10;94.00
5960;DHT22;3006;50.956;7.002;2023-11-21T13:51:53;10.00;94.00
5960;DHT22;3006;50.956;7.002;2023-11-21T13:54:22;10.00;94.50
5960;DHT22;3006;50.956;7.002;2023-11-21T13:56:53;10.00;94.20
5960;DHT22;3006;50.956;7.002;2023-11-21T13:59:21;10.00;94.40
5960;DHT22;3006;50.956;7.002;2023-11-21T14:01:52;10.00;94.70
5960;DHT22;3006;50.956;7.002;2023-11-21T14:04:26;9.90;95.30
5960;DHT22;3006;50.956;7.002;2023-11-21T14:07:11;10.00;95.10
5960;DHT22;3006;50.956;7.002;2023-11-21T14:09:49;10.00;94.80
5960;DHT22;3006;50.956;7.002;2023-11-21T14:12:20;10.00;94.40
5960;DHT22;3006;50.956;7.002;2023-11-21T14:14:49;10.00;94.90
5960;DHT22;3006;50.956;7.002;2023-11-21T14:17:17;10.00;94.70
5960;DHT22;3006;50.956;7.002;2023-11-21T14:19:45;10.00;95.00
5960;DHT22;3006;50.956;7.002;2023-11-21T14:22:14;10.00;95.10
5960;DHT22;3006;50.956;7.002;2023-11-21T14:24:43;10.00;94.90
5960;DHT22;3006;50.956;7.002;2023-11-21T14:27:14;10.00;94.90
5960;DHT22;3006;50.956;7.002;2023-11-21T14:29:44;10.00;94.30
5960;DHT22;3006;50.956;7.002;2023-11-21T14:32:12;10.00;94.40
5960;DHT22;3006;50.956;7.002;2023-11-21T14:34:41;10.10;94.20
5960;DHT22;3006;50.956;7.002;2023-11-21T14:37:14;10.10;94.40
5960;DHT22;3006;50.956;7.002;2023-11-21T14:39:42;10.10;94.60
5960;DHT22;3006;50.956;7.002;2023-11-21T14:42:13;10.00;94.10
5960;DHT22;3006;50.956;7.002;2023-11-21T14:44:44;10.00;94.50
5960;DHT22;3006;50.956;7.002;2023-11-21T14:47:12;10.00;94.60
5960;DHT22;3006;50.956;7.002;2023-11-21T14:49:44;10.00;94.60
5960;DHT22;3006;50.956;7.002;2023-11-21T14:52:23;10.00;94.80
5960;DHT22;3006;50.956;7.002;2023-11-21T14:55:01;10.00;94.60
5960;DHT22;3006;50.956;7.002;2023-11-21T14:57:53;10.00;94.70
5960;DHT22;3006;50.956;7.002;2023-11-21T15:00:22;10.10;94.70
5960;DHT22;3006;50.956;7.002;2023-11-21T15:03:09;10.10;94.30
5960;DHT22;3006;50.956;7.002;2023-11-21T15:05:37;10.10;94.50
5960;DHT22;3006;50.956;7.002;2023-11-21T15:08:06;10.00;95.00
5960;DHT22;3006;50.956;7.002;2023-11-21T15:10:47;10.00;96.10
5960;DHT22;3006;50.956;7.002;2023-11-21T15:13:20;10.00;97.20
5960;DHT22;3006;50.956;7.002;2023-11-21T15:15:51;10.00;97.70
5960;DHT22;3006;50.956;7.002;2023-11-21T15:18:21;10.00;98.00
5960;DHT22;3006;50.956;7.002;2023-11-21T15:20:51;9.90;98.60
5960;DHT22;3006;50.956;7.002;2023-11-21T15:23:20;9.90;98.50
5960;DHT22;3006;50.956;7.002;2023-11-21T15:25:48;9.90;98.60
5960;DHT22;3006;50.956;7.002;2023-11-21T15:28:16;10.00;99.30
5960;DHT22;3006;50.956;7.002;2023-11-21T15:30:46;10.00;98.70
5960;DHT22;3006;50.956;7.002;2023-11-21T15:33:18;9.80;98.50
5960;DHT22;3006;50.956;7.002;2023-11-21T15:35:46;9.90;98.50
5960;DHT22;3006;50.956;7.002;2023-11-21T15:38:14;9.90;98.30
5960;DHT22;3006;50.956;7.002;2023-11-21T15:40:42;9.80;98.30
5960;DHT22;3006;50.956;7.002;2023-11-21T15:43:14;9.90;98.40
5960;DHT22;3006;50.956;7.002;2023-11-21T15:45:42;9.80;98.30
5960;DHT22;3006;50.956;7.002;2023-11-21T15:48:11;9.70;98.60
5960;DHT22;3006;50.956;7.002;2023-11-21T15:50:41;9.70;98.90
5960;DHT22;3006;50.956;7.002;2023-11-21T15:53:12;9.70;98.90
5960;DHT22;3006;50.956;7.002;2023-11-21T15:55:42;9.70;99.20
5960;DHT22;3006;50.956;7.002;2023-11-21T15:58:10;9.80;99.10
5960;DHT22;3006;50.956;7.002;2023-11-21T16:00:39;9.80;98.90
5960;DHT22;3006;50.956;7.002;2023-11-21T16:03:08;9.90;98.60
5960;DHT22;3006;50.956;7.002;2023-11-21T16:05:43;9.80;98.50
5960;DHT22;3006;50.956;7.002;2023-11-21T16:08:14;9.80;98.10
5960;DHT22;3006;50.956;7.002;2023-11-21T16:10:44;9.80;98.10
5960;DHT22;3006;50.956;7.002;2023-11-21T16:13:12;9.80;98.10
5960;DHT22;3006;50.956;7.002;2023-11-21T16:15:42;9.70;97.90
5960;DHT22;3006;50.956;7.002;2023-11-21T16:18:11;9.70;97.40
5960;DHT22;3006;50.956;7.002;2023-11-21T16:20:39;9.70;98.00
5960;DHT22;3006;50.956;7.002;2023-11-21T16:23:08;9.70;96.90
5960;DHT22;3006;50.956;7.002;2023-11-21T16:25:37;9.70;96.90
5960;DHT22;3006;50.956;7.002;2023-11-21T16:28:05;9.80;97.00
5960;DHT22;3006;50.956;7.002;2023-11-21T16:30:33;9.80;96.00
5960;DHT22;3006;50.956;7.002;2023-11-21T16:33:02;9.70;95.80